createdAt,value
2022-11-12T00:00:35.118Z,6.72
2022-11-12T00:05:50.467Z,6.69
2022-11-12T00:10:54.595Z,6.61
2022-11-12T00:15:58.663Z,6.55
2022-11-12T00:21:02.484Z,6.48
2022-11-12T00:26:06.714Z,6.39
2022-11-12T00:31:12.354Z,6.19
2022-11-12T00:36:16.001Z,5.95
2022-11-12T00:41:19.478Z,5.86
2022-11-12T00:46:23.224Z,5.88
2022-11-12T00:51:26.833Z,5.90
2022-11-12T00:56:35.366Z,5.74
2022-11-12T01:01:39.930Z,5.53
2022-11-12T01:06:44.940Z,5.42
2022-11-12T01:11:48.744Z,5.26
2022-11-12T01:16:52.304Z,5.05
2022-11-12T01:21:56.335Z,4.79
2022-11-12T01:27:00.271Z,4.63
2022-11-12T01:32:04.505Z,4.64
2022-11-12T01:37:08.421Z,4.64
2022-11-12T01:42:12.960Z,4.62
2022-11-12T01:47:22.329Z,4.61
2022-11-12T01:52:31.731Z,4.56
2022-11-12T01:57:38.156Z,4.48
2022-11-12T02:02:47.158Z,4.40
2022-11-12T02:07:52.417Z,4.32
2022-11-12T02:13:15.988Z,4.27
2022-11-12T02:18:20.088Z,4.23
2022-11-12T02:23:23.692Z,4.14
2022-11-12T02:28:28.751Z,4.04
2022-11-12T02:33:32.905Z,4.01
2022-11-12T02:38:36.523Z,4.00
2022-11-12T02:43:40.615Z,3.93
2022-11-12T02:48:45.067Z,3.92
2022-11-12T02:53:48.788Z,3.90
2022-11-12T02:58:52.525Z,3.86
2022-11-12T03:03:56.347Z,3.89
2022-11-12T03:09:00.354Z,3.83
2022-11-12T03:14:04.091Z,3.74
2022-11-12T03:19:08.863Z,3.68
2022-11-12T03:24:12.722Z,3.66
2022-11-12T03:29:16.675Z,3.63
2022-11-12T03:34:20.295Z,3.58
2022-11-12T03:39:24.376Z,3.52
2022-11-12T03:44:28.319Z,3.49
2022-11-12T03:49:31.869Z,3.45
2022-11-12T03:54:35.484Z,3.43
2022-11-12T03:59:39.061Z,3.39
2022-11-12T04:05:00.740Z,3.40
2022-11-12T04:10:05.624Z,3.50
2022-11-12T04:15:10.759Z,3.61
2022-11-12T04:20:32.899Z,3.65
2022-11-12T04:26:00.360Z,3.53
2022-11-12T04:31:04.090Z,3.48
2022-11-12T04:36:07.803Z,3.47
2022-11-12T04:41:43.821Z,3.39
2022-11-12T04:46:47.193Z,3.32
2022-11-12T04:52:05.856Z,3.26
2022-11-12T05:00:39.077Z,3.29
2022-11-12T05:05:44.943Z,3.18
2022-11-12T05:10:52.138Z,3.09
2022-11-12T05:16:00.110Z,3.06
2022-11-12T05:21:21.493Z,2.95
2022-11-12T05:26:29.526Z,2.88
2022-11-12T05:31:37.456Z,2.85
2022-11-12T05:36:46.580Z,2.83
2022-11-12T05:42:11.787Z,2.80
2022-11-12T05:47:19.457Z,2.80
2022-11-12T05:52:24.873Z,2.82
2022-11-12T05:57:32.065Z,2.82
2022-11-12T06:02:37.523Z,2.80
2022-11-12T06:07:44.781Z,2.69
2022-11-12T06:12:52.247Z,2.66
2022-11-12T06:17:59.329Z,2.71
2022-11-12T06:23:06.999Z,2.69
2022-11-12T06:28:14.154Z,2.70
2022-11-12T06:33:19.596Z,2.81
2022-11-12T06:38:26.774Z,2.88
2022-11-12T06:43:36.189Z,2.94
2022-11-12T06:48:43.860Z,3.00
2022-11-12T06:53:52.048Z,3.09
2022-11-12T06:58:59.377Z,3.16
2022-11-12T07:04:07.234Z,3.28
2022-11-12T07:09:14.494Z,3.40
2022-11-12T07:17:17.734Z,3.60
2022-11-12T07:22:25.140Z,3.77
2022-11-12T07:27:33.489Z,3.95
2022-11-12T07:32:44.993Z,4.09
2022-11-12T07:37:59.409Z,4.21
2022-11-12T07:43:06.663Z,4.34
2022-11-12T07:48:13.829Z,4.49
2022-11-12T07:53:19.346Z,4.67
2022-11-12T07:58:27.275Z,4.80
2022-11-12T08:03:35.274Z,4.93
2022-11-12T08:08:42.652Z,5.02
2022-11-12T08:13:51.715Z,5.15
2022-11-12T08:18:58.962Z,5.32
2022-11-12T08:24:06.561Z,5.48
2022-11-12T08:29:13.673Z,5.66
2022-11-12T08:34:22.660Z,5.83
2022-11-12T08:39:30.355Z,5.99
2022-11-12T08:44:37.459Z,6.17
2022-11-12T08:49:48.028Z,6.40
2022-11-12T08:54:55.385Z,6.61
2022-11-12T09:00:03.832Z,6.83
2022-11-12T09:05:11.941Z,7.06
2022-11-12T09:10:19.538Z,7.30
2022-11-12T09:15:37.479Z,7.54
2022-11-12T09:20:45.545Z,7.83
2022-11-12T09:25:52.548Z,8.05
2022-11-12T09:30:58.113Z,8.24
2022-11-12T09:36:06.121Z,8.41
2022-11-12T09:41:28.528Z,8.56
2022-11-12T09:46:41.629Z,8.71
2022-11-12T09:51:52.594Z,8.84
2022-11-12T09:59:13.158Z,9.04
2022-11-12T10:04:40.968Z,9.15
2022-11-12T10:09:59.994Z,9.28
2022-11-12T10:15:58.488Z,9.42
2022-11-12T10:21:17.741Z,9.63
2022-11-12T10:26:28.324Z,9.77
2022-11-12T10:31:35.764Z,9.89
2022-11-12T10:36:45.480Z,10.02
2022-11-12T10:42:05.706Z,10.16
2022-11-12T10:57:21.191Z,10.68
2022-11-12T11:02:25.223Z,10.79
2022-11-12T11:07:29.436Z,10.85
2022-11-12T11:12:34.487Z,10.90
2022-11-12T11:17:38.318Z,10.96
2022-11-12T11:22:44.584Z,11.03
2022-11-12T11:28:00.510Z,11.10
2022-11-12T11:33:23.256Z,11.19
2022-11-12T11:38:41.110Z,11.30
2022-11-12T11:43:57.668Z,11.42
2022-11-12T11:49:26.229Z,11.49
2022-11-12T11:54:53.800Z,11.50
2022-11-12T12:00:10.719Z,11.56
2022-11-12T12:05:28.405Z,11.65
2022-11-12T12:11:06.951Z,11.74
2022-11-12T12:16:35.507Z,11.76
2022-11-12T12:21:44.341Z,11.75
2022-11-12T12:26:53.766Z,11.74
2022-11-12T12:32:05.631Z,11.76
2022-11-12T12:37:22.326Z,11.80
2022-11-12T12:42:29.553Z,11.81
2022-11-12T12:47:40.216Z,11.83
2022-11-12T12:53:06.137Z,11.87
2022-11-12T12:58:28.718Z,11.89
2022-11-12T13:03:57.795Z,11.90
2022-11-12T13:09:05.016Z,11.91
2022-11-12T13:14:51.848Z,11.93
2022-11-12T13:20:18.813Z,11.94
2022-11-12T13:25:28.373Z,11.97
2022-11-12T13:30:57.132Z,11.99
2022-11-12T13:36:26.086Z,12.00
2022-11-12T13:41:49.580Z,11.99
2022-11-12T13:46:55.389Z,11.96
2022-11-12T13:52:00.375Z,11.92
2022-11-12T13:57:28.528Z,11.86
2022-11-12T14:02:36.828Z,11.80
2022-11-12T14:07:53.184Z,11.73
2022-11-12T14:13:12.179Z,11.67
2022-11-12T14:18:23.227Z,11.62
2022-11-12T14:23:27.398Z,11.57
2022-11-12T14:28:34.193Z,11.50
2022-11-12T14:33:37.711Z,11.40
2022-11-12T14:38:44.831Z,11.30
2022-11-12T14:44:07.490Z,11.21
2022-11-12T14:49:21.041Z,11.06
2022-11-12T14:54:30.923Z,10.89
2022-11-12T14:59:35.925Z,10.68
2022-11-12T15:04:42.824Z,10.52
2022-11-12T15:09:45.859Z,10.37
2022-11-12T15:14:49.898Z,10.19
2022-11-12T15:19:53.611Z,10.04
2022-11-12T15:25:09.331Z,9.92
2022-11-12T15:30:19.475Z,9.84
2022-11-12T15:35:38.034Z,9.80
2022-11-12T15:40:44.489Z,9.73
2022-11-12T15:45:50.266Z,9.69
2022-11-12T15:50:55.300Z,9.61
2022-11-12T15:55:59.241Z,9.49
2022-11-12T16:01:03.370Z,9.43
2022-11-12T16:06:09.939Z,9.38
2022-11-12T16:11:28.303Z,9.26
2022-11-12T16:16:33.258Z,9.17
2022-11-12T16:21:36.841Z,9.05
2022-11-12T16:26:40.602Z,8.86
2022-11-12T16:31:44.848Z,8.70
2022-11-12T16:36:49.484Z,8.56
2022-11-12T16:41:53.241Z,8.51
2022-11-12T16:46:56.716Z,8.48
2022-11-12T16:52:00.298Z,8.44
2022-11-12T16:57:04.239Z,8.38
2022-11-12T17:02:14.156Z,8.26
2022-11-12T17:07:17.761Z,8.12
2022-11-12T17:12:21.517Z,8.01
2022-11-12T17:17:25.215Z,7.87
2022-11-12T17:22:29.776Z,7.75
2022-11-12T17:27:33.489Z,7.64
2022-11-12T17:32:37.074Z,7.55
2022-11-12T17:37:40.613Z,7.47
2022-11-12T17:42:44.362Z,7.38
2022-11-12T17:47:48.183Z,7.30
2022-11-12T17:52:51.683Z,7.23
2022-11-12T17:57:55.318Z,7.18
2022-11-12T18:02:59.414Z,7.14
2022-11-12T18:08:02.929Z,7.14
2022-11-12T18:13:06.486Z,7.11
2022-11-12T18:18:09.970Z,7.07
2022-11-12T18:23:13.669Z,7.05
2022-11-12T18:35:16.607Z,6.88
2022-11-12T18:40:21.478Z,6.79
2022-11-12T18:45:24.976Z,6.74
2022-11-12T18:50:28.870Z,6.73
2022-11-12T18:55:32.288Z,6.72
2022-11-12T19:00:36.353Z,6.67
2022-11-12T19:05:40.002Z,6.59
2022-11-12T19:10:43.884Z,6.54
2022-11-12T19:15:47.717Z,6.58
2022-11-12T19:20:51.919Z,6.58
2022-11-12T19:25:55.400Z,6.59
2022-11-12T19:31:02.958Z,6.59
2022-11-12T19:36:10.275Z,6.64
2022-11-12T19:41:19.646Z,6.68
2022-11-12T19:46:24.851Z,6.74
2022-11-12T19:51:30.407Z,6.78
2022-11-12T19:56:34.585Z,6.82
2022-11-12T20:01:38.139Z,6.85
2022-11-12T20:06:42.110Z,6.87
2022-11-12T20:11:45.797Z,6.88
2022-11-12T20:16:51.099Z,6.91
2022-11-12T20:21:54.561Z,6.95
2022-11-12T20:26:58.358Z,6.99
2022-11-12T20:32:02.336Z,7.02
2022-11-12T20:37:05.926Z,7.04
2022-11-12T20:42:09.594Z,7.04
2022-11-12T20:47:13.363Z,7.07
2022-11-12T20:52:16.877Z,7.10
2022-11-12T20:57:20.502Z,7.08
2022-11-12T21:02:24.524Z,7.07
2022-11-12T21:07:28.679Z,7.04
2022-11-12T21:12:32.684Z,7.03
2022-11-12T21:17:36.286Z,7.04
2022-11-12T21:22:39.945Z,7.05
2022-11-12T21:27:44.091Z,7.07
2022-11-12T21:32:47.638Z,7.07
2022-11-12T21:37:50.992Z,7.07
2022-11-12T21:42:54.582Z,7.06
2022-11-12T21:47:58.285Z,7.06
2022-11-12T21:53:01.846Z,7.07
2022-11-12T21:58:05.488Z,7.07
2022-11-12T22:03:08.933Z,7.07
2022-11-12T22:08:12.448Z,7.07
2022-11-12T22:13:31.521Z,7.05
2022-11-12T22:18:35.850Z,7.05
2022-11-12T22:23:39.994Z,7.06
2022-11-12T22:28:44.275Z,7.04
2022-11-12T22:33:48.343Z,7.04
2022-11-12T22:38:53.148Z,7.02
2022-11-12T22:43:58.462Z,6.97
2022-11-12T22:49:02.616Z,6.99
2022-11-12T22:54:08.806Z,7.04
2022-11-12T22:59:12.767Z,7.07
2022-11-12T23:04:16.282Z,7.07
2022-11-12T23:09:19.801Z,7.07
2022-11-12T23:14:23.778Z,7.08
2022-11-12T23:19:27.648Z,7.11
2022-11-12T23:24:31.258Z,7.14
2022-11-12T23:29:34.924Z,7.14
2022-11-12T23:34:38.430Z,7.13
2022-11-12T23:39:42.224Z,7.12
2022-11-12T23:44:46.045Z,7.11
2022-11-12T23:49:49.777Z,7.10
2022-11-12T23:54:53.305Z,7.11
2022-11-12T23:59:56.766Z,7.09
